Time;durP1;ratioP1;P1;durP2;ratioP2;P2;SDS_P1;SDS_P2;PMS_P1;PMS_P2;Temp;Humidity;BMP_temperature;BMP_pressure;BME280_temperature;BME280_humidity;BME280_pressure;Samples;Min_cycle;Max_cycle;Signal;HPM_P1;HPM_P2
2022/07/17 00:02:21;;;;;;;;;;;19.80;78.10;;;;;;4375839;32;43197;-81
2022/07/17 00:04:51;;;;;;;;;;;19.80;78.00;;;;;;4389551;32;42994;-81
2022/07/17 00:07:26;;;;;;;;;;;19.80;77.90;;;;;;4376639;32;44191;-80
2022/07/17 00:09:56;;;;;;;;;;;19.70;78.00;;;;;;4390123;32;44154;-80
2022/07/17 00:12:24;;;;;;;;;;;19.70;77.80;;;;;;4376511;32;44599;-81
2022/07/17 00:14:53;;;;;;;;;;;19.70;78.10;;;;;;4376582;32;43009;-80
2022/07/17 00:17:23;;;;;;;;;;;19.60;78.00;;;;;;4389768;32;43466;-80
2022/07/17 00:19:56;;;;;;;;;;;19.50;78.20;;;;;;4390222;32;20463;-80
2022/07/17 00:22:23;;;;;;;;;;;19.50;78.10;;;;;;4389664;32;43877;-80
2022/07/17 00:24:54;;;;;;;;;;;19.50;78.40;;;;;;4390588;32;42638;-80
2022/07/17 00:27:24;;;;;;;;;;;19.50;78.50;;;;;;4392601;32;44200;-80
2022/07/17 00:29:57;;;;;;;;;;;19.50;78.50;;;;;;4378978;32;43483;-80
2022/07/17 00:32:24;;;;;;;;;;;19.40;78.60;;;;;;4379324;32;43953;-79
2022/07/17 00:34:54;;;;;;;;;;;19.40;78.50;;;;;;4392993;32;42993;-80
2022/07/17 00:37:24;;;;;;;;;;;19.40;78.80;;;;;;4392200;32;43853;-80
2022/07/17 00:39:54;;;;;;;;;;;19.30;78.90;;;;;;4378950;32;42856;-80
2022/07/17 00:42:23;;;;;;;;;;;19.30;79.00;;;;;;4378800;32;44113;-80
2022/07/17 00:44:52;;;;;;;;;;;19.30;78.80;;;;;;4392355;32;42504;-79
2022/07/17 00:47:23;;;;;;;;;;;19.30;79.20;;;;;;4379117;32;43907;-79
2022/07/17 00:49:52;;;;;;;;;;;19.30;78.90;;;;;;4392633;32;44748;-80
2022/07/17 00:52:22;;;;;;;;;;;19.20;78.90;;;;;;4392399;32;42738;-79
2022/07/17 00:54:55;;;;;;;;;;;19.20;79.10;;;;;;4392048;32;43015;-81
2022/07/17 00:57:48;;;;;;;;;;;19.20;79.20;;;;;;4392409;32;44879;-80
2022/07/17 01:00:18;;;;;;;;;;;19.20;79.10;;;;;;4392740;32;44987;-81
2022/07/17 01:02:49;;;;;;;;;;;19.20;79.00;;;;;;4378464;32;44151;-80
2022/07/17 01:05:19;;;;;;;;;;;19.20;79.10;;;;;;4378117;32;43975;-80
2022/07/17 01:07:53;;;;;;;;;;;19.20;79.60;;;;;;4378603;32;42396;-80
2022/07/17 01:10:20;;;;;;;;;;;19.20;79.40;;;;;;4392480;32;44182;-80
2022/07/17 01:12:50;;;;;;;;;;;19.20;79.60;;;;;;4391882;32;42536;-80
2022/07/17 01:15:23;;;;;;;;;;;19.10;79.50;;;;;;4392171;32;42594;-80
2022/07/17 01:17:53;;;;;;;;;;;19.20;79.50;;;;;;4378719;32;46081;-82
2022/07/17 01:20:26;;;;;;;;;;;19.10;79.70;;;;;;4391675;32;42644;-80
2022/07/17 01:22:53;;;;;;;;;;;19.10;79.30;;;;;;4391781;32;43151;-81
2022/07/17 01:25:24;;;;;;;;;;;19.10;79.30;;;;;;4392006;32;43691;-80
2022/07/17 01:27:56;;;;;;;;;;;19.00;79.40;;;;;;4378396;32;42195;-80
2022/07/17 01:30:29;;;;;;;;;;;19.00;79.10;;;;;;4392014;32;46069;-81
2022/07/17 01:32:58;;;;;;;;;;;19.00;79.10;;;;;;4392163;32;43599;-80
2022/07/17 01:35:28;;;;;;;;;;;19.00;80.10;;;;;;4391311;32;43177;-80
2022/07/17 01:38:04;;;;;;;;;;;18.90;79.30;;;;;;4391462;32;44191;-81
2022/07/17 01:40:36;;;;;;;;;;;18.90;79.20;;;;;;4377807;32;42624;-81
2022/07/17 01:43:06;;;;;;;;;;;18.90;79.60;;;;;;4391959;32;44221;-81
2022/07/17 01:45:34;;;;;;;;;;;18.80;79.60;;;;;;4391512;32;43269;-80
2022/07/17 01:48:09;;;;;;;;;;;18.80;80.00;;;;;;4391745;32;43182;-79
2022/07/17 01:50:42;;;;;;;;;;;18.70;79.80;;;;;;4391698;32;44289;-80
2022/07/17 01:53:15;;;;;;;;;;;18.70;80.10;;;;;;4392850;32;19996;-79
2022/07/17 01:55:47;;;;;;;;;;;18.70;79.90;;;;;;4377528;32;43435;-80
2022/07/17 01:58:20;;;;;;;;;;;18.70;79.70;;;;;;4378534;32;43743;-80
2022/07/17 02:00:48;;;;;;;;;;;18.70;80.00;;;;;;4378380;32;43474;-80
2022/07/17 02:03:21;;;;;;;;;;;18.70;80.00;;;;;;4391008;32;42048;-80
2022/07/17 02:05:53;;;;;;;;;;;18.80;79.90;;;;;;4391575;32;43177;-79
2022/07/17 02:08:21;;;;;;;;;;;18.80;79.90;;;;;;4391893;32;43361;-80
2022/07/17 02:10:53;;;;;;;;;;;18.70;79.70;;;;;;4377349;32;43594;-80
2022/07/17 02:13:24;;;;;;;;;;;18.70;80.00;;;;;;4391479;32;45337;-80
2022/07/17 02:16:00;;;;;;;;;;;18.70;79.50;;;;;;4391425;32;46154;-80
2022/07/17 02:18:35;;;;;;;;;;;18.60;79.50;;;;;;4377449;32;42839;-80
2022/07/17 02:21:10;;;;;;;;;;;18.60;79.80;;;;;;4377786;32;43126;-80
2022/07/17 02:23:38;;;;;;;;;;;18.60;80.00;;;;;;4378893;32;20031;-80
2022/07/17 02:26:09;;;;;;;;;;;18.60;80.00;;;;;;4390688;32;45004;-80
2022/07/17 02:28:43;;;;;;;;;;;18.60;80.10;;;;;;4377880;32;44289;-80
2022/07/17 02:31:10;;;;;;;;;;;18.60;80.10;;;;;;4377146;32;43983;-79
2022/07/17 02:33:43;;;;;;;;;;;18.60;80.40;;;;;;4390777;32;43482;-79
2022/07/17 02:36:10;;;;;;;;;;;18.60;80.10;;;;;;4391278;32;43574;-80
2022/07/17 02:38:40;;;;;;;;;;;18.60;80.10;;;;;;4391064;32;43701;-79
2022/07/17 02:41:15;;;;;;;;;;;18.60;80.30;;;;;;4377262;32;44017;-79
2022/07/17 02:43:42;;;;;;;;;;;18.50;80.30;;;;;;4390969;32;42804;-79
2022/07/17 02:46:15;;;;;;;;;;;18.60;80.20;;;;;;4377252;32;44211;-79
2022/07/17 02:48:48;;;;;;;;;;;18.60;80.00;;;;;;4390539;32;43429;-79
2022/07/17 02:51:20;;;;;;;;;;;18.60;79.90;;;;;;4390908;32;44813;-79
2022/07/17 02:53:51;;;;;;;;;;;18.50;79.70;;;;;;4378259;32;20001;-79
2022/07/17 02:56:21;;;;;;;;;;;18.50;80.10;;;;;;4390376;32;43449;-80
2022/07/17 02:58:48;;;;;;;;;;;18.50;80.10;;;;;;4376772;32;42137;-81
2022/07/17 03:01:15;;;;;;;;;;;18.50;80.00;;;;;;4377081;32;44660;-79
2022/07/17 03:03:47;;;;;;;;;;;18.50;79.60;;;;;;4390648;32;43236;-80
2022/07/17 03:06:14;;;;;;;;;;;18.50;80.10;;;;;;4377024;32;42709;-80
2022/07/17 03:08:45;;;;;;;;;;;18.50;80.10;;;;;;4377146;32;42855;-80
2022/07/17 03:11:12;;;;;;;;;;;18.50;79.80;;;;;;4390142;32;44511;-79
2022/07/17 03:13:42;;;;;;;;;;;18.40;80.00;;;;;;4377253;32;43190;-79
2022/07/17 03:16:13;;;;;;;;;;;18.40;79.90;;;;;;4390008;32;43600;-80
2022/07/17 03:18:43;;;;;;;;;;;18.30;79.90;;;;;;4390268;32;45132;-80
2022/07/17 03:21:13;;;;;;;;;;;18.30;80.20;;;;;;4389941;32;44182;-80
2022/07/17 03:23:43;;;;;;;;;;;18.20;80.20;;;;;;4390786;32;44459;-80
2022/07/17 03:26:18;;;;;;;;;;;18.20;80.30;;;;;;4390453;32;44391;-79
2022/07/17 03:28:51;;;;;;;;;;;18.20;80.70;;;;;;4376530;32;42727;-79
2022/07/17 03:31:18;;;;;;;;;;;18.20;80.30;;;;;;4390458;32;43471;-79
2022/07/17 03:33:54;;;;;;;;;;;18.10;80.20;;;;;;4376560;32;44151;-80
2022/07/17 03:36:24;;;;;;;;;;;18.10;80.60;;;;;;4376708;32;44981;-79
2022/07/17 03:38:57;;;;;;;;;;;18.10;80.90;;;;;;4376086;32;42318;-79
2022/07/17 03:41:24;;;;;;;;;;;18.10;81.00;;;;;;4376228;32;44095;-79
2022/07/17 03:43:57;;;;;;;;;;;18.10;81.20;;;;;;4390203;32;44006;-79
2022/07/17 03:46:25;;;;;;;;;;;18.10;81.00;;;;;;4376501;32;45550;-81
2022/07/17 03:48:55;;;;;;;;;;;18.10;80.90;;;;;;4376122;32;41806;-79
2022/07/17 03:51:27;;;;;;;;;;;18.00;81.40;;;;;;4389859;32;44774;-79
2022/07/17 03:54:02;;;;;;;;;;;18.10;81.10;;;;;;4376609;32;42548;-79
2022/07/17 03:56:33;;;;;;;;;;;18.10;80.80;;;;;;4390979;32;20094;-79
2022/07/17 03:59:06;;;;;;;;;;;18.10;80.70;;;;;;4376404;32;42718;-79
2022/07/17 04:01:39;;;;;;;;;;;18.00;81.00;;;;;;4389429;32;42615;-78
2022/07/17 04:04:06;;;;;;;;;;;18.00;81.30;;;;;;4389740;32;43166;-78
2022/07/17 04:06:39;;;;;;;;;;;18.00;81.60;;;;;;4376111;32;42365;-78
2022/07/17 04:09:09;;;;;;;;;;;17.90;81.40;;;;;;4376833;32;44204;-79
2022/07/17 04:11:36;;;;;;;;;;;17.90;81.70;;;;;;4376204;32;46089;-79
2022/07/17 04:14:06;;;;;;;;;;;18.00;81.70;;;;;;4390091;32;44060;-79
2022/07/17 04:16:41;;;;;;;;;;;17.90;81.60;;;;;;4376722;32;44232;-78
2022/07/17 04:19:11;;;;;;;;;;;17.90;81.90;;;;;;4390001;32;43092;-79
2022/07/17 04:21:41;;;;;;;;;;;17.80;81.90;;;;;;4376425;32;46010;-78
2022/07/17 04:24:16;;;;;;;;;;;17.80;82.00;;;;;;4389528;32;44234;-79
2022/07/17 04:26:46;;;;;;;;;;;17.80;82.30;;;;;;4377175;32;20000;-78
2022/07/17 04:29:19;;;;;;;;;;;17.90;82.40;;;;;;4376864;32;44601;-79
2022/07/17 04:31:51;;;;;;;;;;;17.90;82.60;;;;;;4375826;32;43490;-79
2022/07/17 04:34:18;;;;;;;;;;;17.90;82.60;;;;;;4389425;32;43942;-79
2022/07/17 04:36:45;;;;;;;;;;;17.90;82.50;;;;;;4375851;32;42628;-80
2022/07/17 04:39:12;;;;;;;;;;;17.90;82.70;;;;;;4376243;32;45174;-79
2022/07/17 04:41:47;;;;;;;;;;;17.90;82.80;;;;;;4376549;32;43044;-79
2022/07/17 04:44:18;;;;;;;;;;;17.90;82.50;;;;;;4389923;32;43691;-79
2022/07/17 04:46:55;;;;;;;;;;;17.90;82.10;;;;;;4376574;32;43548;-79
2022/07/17 04:49:25;;;;;;;;;;;18.00;82.20;;;;;;4376285;32;43392;-79
2022/07/17 04:51:58;;;;;;;;;;;18.00;82.00;;;;;;4376454;32;44286;-79
2022/07/17 04:54:31;;;;;;;;;;;18.00;82.30;;;;;;4375691;32;42974;-79
2022/07/17 04:56:58;;;;;;;;;;;18.00;82.20;;;;;;4377318;32;20103;-79
2022/07/17 04:59:25;;;;;;;;;;;18.00;82.20;;;;;;4388922;32;42158;-79
2022/07/17 05:01:52;;;;;;;;;;;18.00;82.10;;;;;;4389222;32;42701;-79
2022/07/17 05:04:20;;;;;;;;;;;18.00;82.20;;;;;;4375529;32;44073;-78
2022/07/17 05:06:57;;;;;;;;;;;18.00;82.50;;;;;;4376702;32;45600;-78
2022/07/17 05:09:27;;;;;;;;;;;18.00;82.40;;;;;;4389322;32;42837;-78
2022/07/17 05:11:54;;;;;;;;;;;18.00;82.70;;;;;;4377791;32;44792;-78
2022/07/17 05:14:21;;;;;;;;;;;18.00;82.90;;;;;;4378430;32;43500;-78
2022/07/17 05:16:51;;;;;;;;;;;18.00;82.70;;;;;;4391580;32;43822;-78
2022/07/17 05:19:24;;;;;;;;;;;18.00;83.10;;;;;;4378668;32;44603;-78
2022/07/17 05:21:54;;;;;;;;;;;17.90;83.50;;;;;;4378713;32;43136;-78
2022/07/17 05:24:21;;;;;;;;;;;17.90;83.60;;;;;;4391922;32;42658;-78
2022/07/17 05:26:51;;;;;;;;;;;17.90;83.60;;;;;;4391858;32;43907;-78
2022/07/17 05:29:21;;;;;;;;;;;17.90;83.60;;;;;;4392030;32;43745;-78
2022/07/17 05:31:48;;;;;;;;;;;17.90;83.70;;;;;;4378067;32;42824;-79
2022/07/17 05:34:18;;;;;;;;;;;17.90;83.90;;;;;;4391646;32;45947;-78
2022/07/17 05:36:46;;;;;;;;;;;17.90;84.10;;;;;;4392030;32;42835;-78
2022/07/17 05:39:16;;;;;;;;;;;17.90;84.60;;;;;;4391373;32;45874;-78
2022/07/17 05:41:43;;;;;;;;;;;17.90;84.40;;;;;;4378450;32;44338;-78
2022/07/17 05:44:10;;;;;;;;;;;17.90;84.60;;;;;;4391551;32;43260;-78
2022/07/17 05:46:40;;;;;;;;;;;17.90;84.90;;;;;;4391694;32;42135;-78
2022/07/17 05:49:07;;;;;;;;;;;17.90;84.90;;;;;;4377882;32;43787;-77
2022/07/17 05:51:34;;;;;;;;;;;17.90;84.40;;;;;;4391211;32;44899;-78
2022/07/17 05:54:04;;;;;;;;;;;17.90;84.40;;;;;;4391342;32;44281;-78
2022/07/17 05:56:31;;;;;;;;;;;18.00;84.50;;;;;;4378276;32;43183;-78
2022/07/17 05:59:02;;;;;;;;;;;18.00;84.20;;;;;;4392036;32;20009;-78
2022/07/17 06:01:29;;;;;;;;;;;18.00;84.10;;;;;;4391171;32;44007;-78
2022/07/17 06:03:57;;;;;;;;;;;18.00;84.10;;;;;;4391478;32;42501;-78
2022/07/17 06:06:29;;;;;;;;;;;18.00;84.00;;;;;;4378126;32;44811;-78
2022/07/17 06:08:57;;;;;;;;;;;18.00;83.90;;;;;;4391041;32;44785;-78
2022/07/17 06:11:26;;;;;;;;;;;18.00;84.30;;;;;;4391141;32;42822;-78
2022/07/17 06:14:02;;;;;;;;;;;18.00;84.90;;;;;;4391396;32;44188;-79
2022/07/17 06:16:32;;;;;;;;;;;18.10;85.00;;;;;;4377886;32;43453;-78
2022/07/17 06:18:59;;;;;;;;;;;18.10;85.40;;;;;;4391245;32;43852;-78
2022/07/17 06:21:32;;;;;;;;;;;18.10;85.00;;;;;;4390542;32;43505;-79
2022/07/17 06:23:59;;;;;;;;;;;18.10;85.70;;;;;;4390771;32;43836;-79
2022/07/17 06:26:32;;;;;;;;;;;18.10;85.60;;;;;;4377186;32;44713;-77
2022/07/17 06:28:59;;;;;;;;;;;18.10;84.90;;;;;;4378316;32;23747;-78
2022/07/17 06:31:26;;;;;;;;;;;18.10;85.40;;;;;;4377359;32;43225;-80
2022/07/17 06:33:53;;;;;;;;;;;18.20;85.30;;;;;;4390830;32;44878;-79
2022/07/17 06:36:21;;;;;;;;;;;18.20;85.50;;;;;;4390466;32;44274;-78
2022/07/17 06:38:48;;;;;;;;;;;18.20;85.50;;;;;;4376785;32;45633;-78
2022/07/17 06:41:15;;;;;;;;;;;18.20;84.70;;;;;;4390703;32;42484;-78
2022/07/17 06:43:45;;;;;;;;;;;18.20;85.10;;;;;;4390449;32;43846;-78
2022/07/17 06:46:12;;;;;;;;;;;18.30;85.30;;;;;;4390692;32;43758;-77
2022/07/17 06:48:39;;;;;;;;;;;18.30;85.90;;;;;;4376905;32;42141;-78
2022/07/17 06:51:06;;;;;;;;;;;18.30;85.90;;;;;;4390221;32;43348;-78
2022/07/17 06:53:33;;;;;;;;;;;18.30;86.10;;;;;;4390239;32;42836;-78
2022/07/17 06:56:00;;;;;;;;;;;18.30;86.10;;;;;;4390190;32;43700;-77
2022/07/17 06:58:27;;;;;;;;;;;18.30;85.50;;;;;;4390593;32;43050;-78
2022/07/17 07:00:54;;;;;;;;;;;18.30;85.20;;;;;;4390565;32;43702;-77
2022/07/17 07:03:22;;;;;;;;;;;18.30;85.70;;;;;;4390007;32;44210;-78
2022/07/17 07:05:50;;;;;;;;;;;18.30;85.60;;;;;;4390644;32;43729;-77
2022/07/17 07:08:20;;;;;;;;;;;18.40;85.60;;;;;;4390045;32;42966;-77
2022/07/17 07:10:47;;;;;;;;;;;18.40;85.00;;;;;;4389959;32;43503;-78
2022/07/17 07:13:14;;;;;;;;;;;18.40;84.90;;;;;;4376486;32;42238;-77
2022/07/17 07:15:41;;;;;;;;;;;18.40;85.00;;;;;;4389999;32;43566;-78
2022/07/17 07:18:08;;;;;;;;;;;18.40;84.70;;;;;;4390022;32;42913;-78
2022/07/17 07:20:35;;;;;;;;;;;18.40;84.80;;;;;;4376248;32;43630;-79
2022/07/17 07:23:05;;;;;;;;;;;18.40;84.90;;;;;;4390395;32;44262;-78
2022/07/17 07:25:33;;;;;;;;;;;18.40;85.30;;;;;;4390330;32;42915;-78
2022/07/17 07:28:02;;;;;;;;;;;18.50;85.10;;;;;;4376838;32;43029;-78
2022/07/17 07:30:29;;;;;;;;;;;18.50;84.30;;;;;;4376272;32;43234;-77
2022/07/17 07:32:57;;;;;;;;;;;18.50;84.40;;;;;;4389527;32;43611;-78
2022/07/17 07:35:25;;;;;;;;;;;18.50;85.10;;;;;;4390288;32;43733;-78
2022/07/17 07:37:52;;;;;;;;;;;18.50;85.50;;;;;;4376444;32;43485;-78
2022/07/17 07:40:20;;;;;;;;;;;18.60;85.50;;;;;;4390321;32;43051;-78
2022/07/17 07:42:47;;;;;;;;;;;18.60;85.60;;;;;;4389703;32;43926;-79
2022/07/17 07:45:14;;;;;;;;;;;18.60;85.30;;;;;;4376675;32;43201;-79
2022/07/17 07:47:42;;;;;;;;;;;18.70;85.20;;;;;;4390198;32;44221;-78
2022/07/17 07:50:10;;;;;;;;;;;18.70;85.30;;;;;;4389922;32;44211;-78
2022/07/17 07:52:37;;;;;;;;;;;18.70;84.50;;;;;;4376432;32;42857;-79
2022/07/17 07:55:04;;;;;;;;;;;18.70;84.00;;;;;;4376635;32;43069;-79
2022/07/17 07:57:32;;;;;;;;;;;18.70;84.60;;;;;;4376120;32;43693;-78
2022/07/17 07:59:59;;;;;;;;;;;18.70;84.40;;;;;;4390001;32;43477;-78
2022/07/17 08:02:26;;;;;;;;;;;18.70;84.20;;;;;;4389587;32;43840;-78
2022/07/17 08:04:56;;;;;;;;;;;18.70;83.80;;;;;;4389883;32;43201;-79
2022/07/17 08:07:25;;;;;;;;;;;18.70;84.90;;;;;;4376005;32;43178;-78
2022/07/17 08:09:52;;;;;;;;;;;18.80;84.80;;;;;;4389704;32;43322;-79
2022/07/17 08:12:21;;;;;;;;;;;18.80;85.00;;;;;;4389427;32;43943;-79
2022/07/17 08:15:08;;;;;;;;;;;18.80;84.80;;;;;;4378656;32;46487;-79
2022/07/17 08:17:35;;;;;;;;;;;18.80;85.00;;;;;;4389327;32;44506;-79
2022/07/17 08:20:03;;;;;;;;;;;18.80;85.20;;;;;;4376413;32;33163;-80
2022/07/17 08:22:35;;;;;;;;;;;18.90;85.60;;;;;;4376486;32;42759;-80
2022/07/17 08:25:23;;;;;;;;;;;19.00;85.90;;;;;;4389252;32;43042;-80
2022/07/17 08:27:51;;;;;;;;;;;19.00;84.90;;;;;;4389200;32;44238;-82
2022/07/17 08:30:18;;;;;;;;;;;19.00;84.70;;;;;;4376054;32;44508;-82
2022/07/17 08:32:45;;;;;;;;;;;19.00;84.50;;;;;;4389540;32;45077;-82
2022/07/17 08:35:12;;;;;;;;;;;19.00;84.40;;;;;;4389460;32;43893;-82
2022/07/17 08:37:50;;;;;;;;;;;19.00;84.50;;;;;;4375689;32;43047;-82
2022/07/17 08:40:22;;;;;;;;;;;19.00;84.40;;;;;;4376227;32;43857;-82
2022/07/17 08:42:50;;;;;;;;;;;19.10;82.70;;;;;;4375600;32;42314;-82
2022/07/17 08:45:17;;;;;;;;;;;19.10;83.70;;;;;;4389973;32;43591;-82
2022/07/17 08:47:44;;;;;;;;;;;19.10;83.40;;;;;;4392063;32;44270;-82
2022/07/17 08:50:12;;;;;;;;;;;19.10;83.40;;;;;;4392383;32;42808;-83
2022/07/17 08:52:40;;;;;;;;;;;19.10;83.10;;;;;;4392370;32;45987;-82
2022/07/17 08:55:08;;;;;;;;;;;19.20;83.00;;;;;;4377607;32;42626;-82
2022/07/17 08:57:40;;;;;;;;;;;19.20;82.20;;;;;;4378821;32;44254;-81
2022/07/17 09:00:18;;;;;;;;;;;19.20;81.60;;;;;;4379672;32;42566;-81
2022/07/17 09:03:04;;;;;;;;;;;19.30;81.70;;;;;;4392070;32;43562;-81
2022/07/17 09:05:33;;;;;;;;;;;19.30;81.40;;;;;;4392472;32;43967;-81
2022/07/17 09:08:00;;;;;;;;;;;19.30;81.90;;;;;;4378939;32;43401;-83
2022/07/17 09:10:38;;;;;;;;;;;19.30;81.30;;;;;;4378221;32;43540;-82
2022/07/17 09:13:16;;;;;;;;;;;19.30;80.80;;;;;;4392178;32;44201;-81
2022/07/17 09:15:44;;;;;;;;;;;19.30;80.70;;;;;;4378213;32;43002;-81
2022/07/17 09:18:13;;;;;;;;;;;19.40;80.70;;;;;;4391845;32;43780;-81
2022/07/17 09:20:44;;;;;;;;;;;19.40;80.90;;;;;;4378255;32;44658;-81
2022/07/17 09:23:11;;;;;;;;;;;19.40;81.60;;;;;;4378492;32;43931;-75
2022/07/17 09:25:40;;;;;;;;;;;19.40;81.60;;;;;;4378112;32;43632;-73
2022/07/17 09:28:09;;;;;;;;;;;19.50;81.10;;;;;;4378470;32;43817;-74
2022/07/17 09:30:37;;;;;;;;;;;19.50;81.40;;;;;;4378561;32;43770;-75
2022/07/17 09:33:10;;;;;;;;;;;19.50;81.40;;;;;;4378553;32;44799;-74
2022/07/17 09:35:46;;;;;;;;;;;19.50;81.40;;;;;;4377856;32;43835;-75
2022/07/17 09:38:27;;;;;;;;;;;19.60;81.70;;;;;;4378431;32;43623;-75
2022/07/17 09:41:15;;;;;;;;;;;19.60;81.10;;;;;;4391933;32;43158;-75
2022/07/17 09:43:52;;;;;;;;;;;19.50;81.10;;;;;;4378491;32;43030;-75
2022/07/17 09:46:24;;;;;;;;;;;19.60;81.40;;;;;;4391992;32;43090;-75
2022/07/17 09:48:55;;;;;;;;;;;19.60;81.30;;;;;;4377774;32;43730;-75
2022/07/17 09:51:23;;;;;;;;;;;19.70;81.20;;;;;;4391928;32;43214;-75
2022/07/17 09:53:52;;;;;;;;;;;19.70;81.00;;;;;;4391217;32;42887;-75
2022/07/17 09:56:26;;;;;;;;;;;19.70;81.20;;;;;;4391482;32;44173;-75
2022/07/17 09:58:56;;;;;;;;;;;19.70;81.10;;;;;;4391759;32;45806;-75
2022/07/17 10:01:24;;;;;;;;;;;19.80;81.30;;;;;;4391365;32;43674;-76
2022/07/17 10:03:53;;;;;;;;;;;19.80;80.80;;;;;;4378534;32;43162;-76
2022/07/17 10:06:22;;;;;;;;;;;19.80;80.50;;;;;;4391255;32;43716;-75
2022/07/17 10:08:50;;;;;;;;;;;19.80;80.40;;;;;;4391507;32;44897;-75
2022/07/17 10:11:20;;;;;;;;;;;19.80;80.00;;;;;;4391082;32;42193;-74
2022/07/17 10:13:48;;;;;;;;;;;19.80;80.30;;;;;;4391197;32;43667;-74
2022/07/17 10:16:25;;;;;;;;;;;19.80;79.70;;;;;;4377862;32;43013;-75
2022/07/17 10:18:55;;;;;;;;;;;19.80;79.20;;;;;;4377946;32;42872;-74
2022/07/17 10:21:22;;;;;;;;;;;19.80;79.50;;;;;;4390882;32;43666;-75
2022/07/17 10:23:52;;;;;;;;;;;19.80;79.70;;;;;;4390879;32;42896;-74
2022/07/17 10:26:33;;;;;;;;;;;19.80;79.90;;;;;;4391133;32;43701;-75
2022/07/17 10:29:03;;;;;;;;;;;19.80;79.50;;;;;;4391533;32;43820;-75
2022/07/17 10:31:30;;;;;;;;;;;19.90;79.70;;;;;;4377339;32;43187;-75
2022/07/17 10:33:58;;;;;;;;;;;19.80;79.30;;;;;;4391891;32;20380;-75
2022/07/17 10:36:35;;;;;;;;;;;19.90;79.40;;;;;;4390653;32;42892;-75
2022/07/17 10:39:12;;;;;;;;;;;19.90;79.20;;;;;;4390569;32;43663;-75
2022/07/17 10:41:39;;;;;;;;;;;19.90;79.50;;;;;;4391066;32;44190;-75
2022/07/17 10:44:06;;;;;;;;;;;19.80;79.20;;;;;;4390904;32;43689;-76
2022/07/17 10:46:34;;;;;;;;;;;19.90;78.40;;;;;;4377355;32;43718;-75
2022/07/17 10:49:05;;;;;;;;;;;19.90;78.70;;;;;;4377694;32;43017;-75
2022/07/17 10:51:33;;;;;;;;;;;19.90;78.90;;;;;;4390510;32;44361;-75
2022/07/17 10:54:00;;;;;;;;;;;19.90;78.80;;;;;;4390993;32;43167;-75
2022/07/17 10:56:27;;;;;;;;;;;19.90;79.20;;;;;;4390372;32;43605;-75
2022/07/17 10:59:01;;;;;;;;;;;19.90;78.90;;;;;;4377329;32;43707;-75
2022/07/17 11:01:29;;;;;;;;;;;19.90;78.80;;;;;;4390584;32;43709;-75
2022/07/17 11:03:58;;;;;;;;;;;20.00;79.10;;;;;;4390396;32;43700;-75
2022/07/17 11:06:30;;;;;;;;;;;20.00;78.80;;;;;;4376767;32;43837;-75
2022/07/17 11:09:03;;;;;;;;;;;20.10;78.70;;;;;;4376892;32;44339;-74
2022/07/17 11:11:36;;;;;;;;;;;20.20;79.20;;;;;;4390670;32;42924;-74
2022/07/17 11:14:10;;;;;;;;;;;20.20;78.70;;;;;;4390862;32;43720;-76
2022/07/17 11:16:37;;;;;;;;;;;20.20;78.70;;;;;;4390880;32;43744;-75
2022/07/17 11:19:05;;;;;;;;;;;20.20;79.00;;;;;;4376482;32;44674;-76
2022/07/17 11:21:35;;;;;;;;;;;20.30;78.10;;;;;;4389962;32;44516;-75
2022/07/17 11:24:02;;;;;;;;;;;20.30;78.70;;;;;;4376878;32;43683;-75
2022/07/17 11:26:29;;;;;;;;;;;20.30;78.50;;;;;;4390483;32;43711;-75
2022/07/17 11:28:57;;;;;;;;;;;20.30;78.50;;;;;;4390511;32;42988;-75
2022/07/17 11:31:29;;;;;;;;;;;20.30;78.50;;;;;;4390314;32;43601;-74
2022/07/17 11:33:58;;;;;;;;;;;20.40;77.90;;;;;;4390630;32;43879;-76
2022/07/17 11:36:32;;;;;;;;;;;20.40;77.60;;;;;;4390398;32;43716;-75
2022/07/17 11:39:02;;;;;;;;;;;20.40;78.00;;;;;;4376899;32;43753;-76
2022/07/17 11:41:33;;;;;;;;;;;20.50;77.70;;;;;;4389952;32;42874;-75
2022/07/17 11:44:01;;;;;;;;;;;20.50;77.40;;;;;;4390433;32;45033;-75
2022/07/17 11:46:29;;;;;;;;;;;20.50;77.70;;;;;;4389801;32;43671;-75
2022/07/17 11:48:57;;;;;;;;;;;20.50;77.70;;;;;;4389799;32;42462;-75
2022/07/17 11:51:37;;;;;;;;;;;20.60;78.20;;;;;;4390185;32;42848;-75
2022/07/17 11:54:05;;;;;;;;;;;20.60;78.30;;;;;;4390064;32;43688;-75
2022/07/17 11:56:33;;;;;;;;;;;20.60;78.60;;;;;;4389713;32;43700;-75
2022/07/17 11:59:00;;;;;;;;;;;20.60;78.60;;;;;;4389863;32;44397;-74
2022/07/17 12:01:37;;;;;;;;;;;20.60;78.30;;;;;;4389794;32;42839;-75
2022/07/17 12:04:07;;;;;;;;;;;20.60;78.70;;;;;;4389628;32;43675;-75
2022/07/17 12:06:42;;;;;;;;;;;20.60;77.40;;;;;;4390135;32;43709;-75
2022/07/17 12:09:09;;;;;;;;;;;20.70;77.70;;;;;;4389806;32;45822;-75
2022/07/17 12:11:46;;;;;;;;;;;20.70;77.30;;;;;;4389964;32;42574;-75
2022/07/17 12:14:13;;;;;;;;;;;20.70;77.40;;;;;;4390055;32;42839;-75
2022/07/17 12:16:40;;;;;;;;;;;20.80;76.90;;;;;;4389492;32;42880;-75
2022/07/17 12:19:09;;;;;;;;;;;20.80;77.40;;;;;;4389692;32;42605;-74
2022/07/17 12:21:55;;;;;;;;;;;20.80;77.30;;;;;;4392666;32;42066;-74
2022/07/17 12:24:23;;;;;;;;;;;20.80;77.50;;;;;;4393140;32;45942;-74
2022/07/17 12:26:51;;;;;;;;;;;20.80;77.40;;;;;;4393010;32;43797;-76
2022/07/17 12:29:19;;;;;;;;;;;20.90;75.80;;;;;;4391685;32;42867;-75
2022/07/17 12:31:46;;;;;;;;;;;20.90;75.70;;;;;;4392878;32;43035;-75
2022/07/17 12:34:13;;;;;;;;;;;21.00;76.00;;;;;;4392638;32;42480;-76
2022/07/17 12:36:40;;;;;;;;;;;21.00;75.00;;;;;;4393623;32;20384;-74
2022/07/17 12:39:07;;;;;;;;;;;21.00;75.90;;;;;;4378854;32;42206;-77
2022/07/17 12:41:34;;;;;;;;;;;21.00;76.20;;;;;;4378010;32;43897;-75
2022/07/17 12:44:01;;;;;;;;;;;21.10;76.50;;;;;;4392444;32;43597;-76
2022/07/17 12:46:28;;;;;;;;;;;21.10;76.80;;;;;;4392279;32;43664;-75
2022/07/17 12:48:56;;;;;;;;;;;21.10;76.70;;;;;;4392492;32;44226;-75
2022/07/17 12:51:23;;;;;;;;;;;21.20;75.40;;;;;;4379098;32;43623;-75
2022/07/17 12:53:57;;;;;;;;;;;21.30;74.70;;;;;;4379926;32;42185;-76
2022/07/17 12:56:24;;;;;;;;;;;21.30;74.30;;;;;;4392535;32;43060;-77
2022/07/17 12:58:51;;;;;;;;;;;21.30;73.20;;;;;;4392311;32;43029;-74
2022/07/17 13:01:27;;;;;;;;;;;21.40;73.10;;;;;;4392376;32;43741;-81
2022/07/17 13:03:54;;;;;;;;;;;21.40;73.40;;;;;;4379195;32;43030;-78
2022/07/17 13:06:21;;;;;;;;;;;21.40;72.30;;;;;;4378935;32;43152;-76
2022/07/17 13:08:49;;;;;;;;;;;21.50;72.20;;;;;;4391927;32;43588;-77
2022/07/17 13:11:16;;;;;;;;;;;21.50;73.30;;;;;;4392137;32;44161;-80
2022/07/17 13:13:43;;;;;;;;;;;21.50;72.30;;;;;;4378864;32;44908;-78
2022/07/17 13:16:11;;;;;;;;;;;21.50;72.90;;;;;;4392141;32;42504;-83
2022/07/17 13:18:39;;;;;;;;;;;21.50;72.70;;;;;;4392325;32;45755;-78
2022/07/17 13:21:06;;;;;;;;;;;21.60;72.20;;;;;;4391838;32;43640;-78
2022/07/17 13:23:34;;;;;;;;;;;21.60;73.20;;;;;;4391886;32;42783;-76
2022/07/17 13:26:01;;;;;;;;;;;21.60;71.80;;;;;;4391844;32;43057;-78
2022/07/17 13:28:29;;;;;;;;;;;21.60;72.20;;;;;;4392154;32;43738;-80
2022/07/17 13:30:56;;;;;;;;;;;21.70;71.70;;;;;;4391461;32;43833;-80
2022/07/17 13:33:24;;;;;;;;;;;21.70;71.00;;;;;;4391586;32;44267;-78
2022/07/17 13:35:51;;;;;;;;;;;21.80;70.30;;;;;;4391996;32;43697;-78
2022/07/17 13:38:19;;;;;;;;;;;21.80;71.00;;;;;;4391619;32;43690;-79
2022/07/17 13:40:46;;;;;;;;;;;21.80;69.70;;;;;;4391645;32;42922;-78
2022/07/17 13:43:13;;;;;;;;;;;21.90;69.40;;;;;;4391505;32;43054;-81
2022/07/17 13:45:40;;;;;;;;;;;21.90;70.20;;;;;;4378677;32;43717;-81
2022/07/17 13:48:07;;;;;;;;;;;21.90;71.30;;;;;;4378569;32;43721;-80
2022/07/17 13:50:34;;;;;;;;;;;22.00;70.70;;;;;;4391360;32;44107;-80
2022/07/17 13:53:01;;;;;;;;;;;22.00;71.20;;;;;;4391406;32;42466;-80
2022/07/17 13:55:28;;;;;;;;;;;22.00;71.90;;;;;;4391483;32;42790;-80
2022/07/17 13:58:08;;;;;;;;;;;22.00;72.00;;;;;;4391701;32;41867;-81
2022/07/17 14:00:35;;;;;;;;;;;22.00;72.70;;;;;;4377760;32;42934;-80
2022/07/17 14:03:03;;;;;;;;;;;22.00;72.70;;;;;;4374999;32;42666;-80
2022/07/17 14:05:30;;;;;;;;;;;22.10;71.60;;;;;;4376157;32;43720;-80
2022/07/17 14:07:57;;;;;;;;;;;22.10;71.70;;;;;;4376654;32;43247;-80
2022/07/17 14:10:24;;;;;;;;;;;22.20;72.30;;;;;;4375631;32;43032;-80
2022/07/17 14:12:52;;;;;;;;;;;22.20;71.50;;;;;;4375595;32;43723;-80
2022/07/17 14:15:19;;;;;;;;;;;22.20;70.60;;;;;;4375389;32;43832;-80
2022/07/17 14:17:47;;;;;;;;;;;22.20;70.40;;;;;;4375870;32;44915;-79
2022/07/17 14:20:14;;;;;;;;;;;22.30;70.60;;;;;;4375546;32;43107;-79
2022/07/17 14:22:41;;;;;;;;;;;22.30;68.80;;;;;;4374799;32;43000;-78
2022/07/17 14:25:08;;;;;;;;;;;22.30;69.90;;;;;;4375947;32;43005;-77
2022/07/17 14:27:35;;;;;;;;;;;22.30;69.60;;;;;;4376303;32;43433;-80
2022/07/17 14:30:03;;;;;;;;;;;22.40;69.80;;;;;;4376260;32;43859;-80
2022/07/17 14:32:30;;;;;;;;;;;22.40;69.50;;;;;;4376161;32;43706;-80